createdAt,value
2023-04-06T00:00:36.468Z,3.42
2023-04-06T00:03:39.437Z,3.35
2023-04-06T00:06:42.367Z,3.37
2023-04-06T00:09:45.823Z,3.39
2023-04-06T00:12:48.594Z,3.22
2023-04-06T00:15:52.735Z,3.19
2023-04-06T00:18:55.464Z,3.22
2023-04-06T00:21:58.398Z,3.18
2023-04-06T00:25:01.290Z,3.08
2023-04-06T00:28:04.496Z,3.07
2023-04-06T00:31:08.643Z,3.08
2023-04-06T00:34:11.884Z,3.08
2023-04-06T00:37:14.657Z,3.09
2023-04-06T00:40:17.858Z,3.11
2023-04-06T00:43:20.648Z,3.10
2023-04-06T00:46:25.145Z,3.04
2023-04-06T00:49:28.286Z,3.00
2023-04-06T00:52:31.190Z,3.02
2023-04-06T00:55:33.872Z,2.97
2023-04-06T00:58:38.913Z,2.98
2023-04-06T01:01:43.029Z,2.97
2023-04-06T01:04:46.090Z,2.96
2023-04-06T01:07:48.829Z,2.98
2023-04-06T01:10:51.573Z,3.02
2023-04-06T01:13:54.881Z,2.92
2023-04-06T01:17:00.252Z,2.90
2023-04-06T01:20:02.974Z,2.83
2023-04-06T01:23:07.134Z,2.89
2023-04-06T01:26:09.840Z,2.90
2023-04-06T01:29:12.654Z,2.93
2023-04-06T01:32:15.577Z,2.90
2023-04-06T01:35:19.850Z,2.83
2023-04-06T01:38:24.017Z,2.71
2023-04-06T01:41:27.145Z,2.63
2023-04-06T01:44:31.259Z,2.56
2023-04-06T01:47:34.077Z,2.56
2023-04-06T01:50:37.188Z,2.55
2023-04-06T01:53:41.711Z,2.61
2023-04-06T01:56:44.426Z,2.57
2023-04-06T01:59:47.148Z,2.52
2023-04-06T02:02:49.951Z,2.48
2023-04-06T02:05:52.655Z,2.45
2023-04-06T02:08:56.761Z,2.43
2023-04-06T02:11:59.535Z,2.40
2023-04-06T02:15:02.286Z,2.42
2023-04-06T02:18:05.238Z,2.38
2023-04-06T02:21:08.012Z,2.42
2023-04-06T02:24:12.084Z,2.41
2023-04-06T02:27:15.994Z,2.34
2023-04-06T02:30:18.811Z,2.26
2023-04-06T02:33:21.550Z,2.27
2023-04-06T02:36:24.273Z,2.28
2023-04-06T02:39:28.382Z,2.24
2023-04-06T02:42:31.282Z,2.21
2023-04-06T02:45:34.070Z,2.18
2023-04-06T02:48:38.218Z,2.12
2023-04-06T02:51:41.328Z,2.07
2023-04-06T02:54:45.482Z,2.06
2023-04-06T02:57:48.253Z,1.97
2023-04-06T03:00:50.973Z,2.08
2023-04-06T03:03:53.880Z,2.18
2023-04-06T03:06:57.871Z,2.20
2023-04-06T03:10:03.563Z,2.19
2023-04-06T03:13:06.279Z,2.13
2023-04-06T03:16:09.184Z,2.11
2023-04-06T03:19:11.992Z,2.01
2023-04-06T03:22:14.800Z,2.00
2023-04-06T03:25:18.895Z,1.98
2023-04-06T03:28:21.685Z,1.99
2023-04-06T03:31:24.661Z,1.95
2023-04-06T03:34:27.365Z,1.91
2023-04-06T03:37:30.280Z,1.89
2023-04-06T03:40:34.370Z,1.93
2023-04-06T03:43:37.441Z,1.87
2023-04-06T03:46:40.525Z,1.82
2023-04-06T03:49:43.257Z,1.79
2023-04-06T03:52:46.007Z,1.78
2023-04-06T03:55:50.244Z,1.78
2023-04-06T03:58:53.036Z,1.73
2023-04-06T04:01:55.783Z,1.68
2023-04-06T04:04:58.474Z,1.70
2023-04-06T04:08:01.299Z,1.73
2023-04-06T04:11:05.517Z,1.69
2023-04-06T04:14:08.251Z,1.68
2023-04-06T04:17:11.001Z,1.63
2023-04-06T04:20:13.871Z,1.59
2023-04-06T04:23:16.581Z,1.52
2023-04-06T04:26:20.938Z,1.47
2023-04-06T04:29:23.709Z,1.50
2023-04-06T04:32:28.245Z,1.48
2023-04-06T04:35:31.054Z,1.42
2023-04-06T04:38:33.799Z,1.38
2023-04-06T04:41:38.114Z,1.40
2023-04-06T04:44:40.994Z,1.40
2023-04-06T04:47:43.740Z,1.36
2023-04-06T04:50:46.683Z,1.38
2023-04-06T04:53:49.488Z,1.33
2023-04-06T04:56:53.603Z,1.33
2023-04-06T04:59:57.952Z,1.31
2023-04-06T05:03:01.022Z,1.35
2023-04-06T05:06:04.186Z,1.34
2023-04-06T05:09:07.037Z,1.42
2023-04-06T05:12:11.181Z,1.41
2023-04-06T05:15:14.000Z,1.47
2023-04-06T05:18:17.177Z,1.50
2023-04-06T05:21:21.312Z,1.56
2023-04-06T05:24:24.094Z,1.59
2023-04-06T05:27:28.203Z,1.70
2023-04-06T05:30:31.100Z,1.72
2023-04-06T05:33:34.382Z,1.79
2023-04-06T05:36:37.099Z,1.90
2023-04-06T05:39:39.913Z,2.00
2023-04-06T05:42:44.996Z,2.05
2023-04-06T05:45:47.693Z,2.05
2023-04-06T05:48:50.366Z,2.10
2023-04-06T05:51:53.177Z,2.13
2023-04-06T05:54:56.154Z,2.19
2023-04-06T05:58:00.291Z,2.34
2023-04-06T06:01:03.928Z,2.51
2023-04-06T06:04:06.651Z,2.67
2023-04-06T06:07:09.444Z,2.88
2023-04-06T06:10:12.828Z,3.04
2023-04-06T06:13:16.933Z,3.26
2023-04-06T06:16:20.335Z,3.46
2023-04-06T06:19:23.100Z,3.66
2023-04-06T06:22:25.870Z,3.94
2023-04-06T06:25:28.615Z,4.32
2023-04-06T06:28:32.725Z,4.57
2023-04-06T06:31:36.242Z,4.79
2023-04-06T06:34:39.079Z,4.95
2023-04-06T06:37:41.882Z,5.22
2023-04-06T06:40:44.593Z,5.52
2023-04-06T06:43:48.680Z,5.77
2023-04-06T06:46:51.392Z,6.23
2023-04-06T06:49:54.122Z,6.96
2023-04-06T06:52:56.849Z,7.69
2023-04-06T06:55:59.798Z,8.11
2023-04-06T06:59:04.019Z,8.26
2023-04-06T07:02:06.714Z,8.47
2023-04-06T07:05:19.906Z,9.44
2023-04-06T07:08:26.958Z,10.57
2023-04-06T07:11:29.766Z,10.92
2023-04-06T07:14:34.152Z,11.77
2023-04-06T07:17:36.997Z,12.06
2023-04-06T07:20:39.840Z,11.79
2023-04-06T07:23:42.518Z,11.17
2023-04-06T07:26:45.304Z,10.69
2023-04-06T07:29:49.431Z,10.60
2023-04-06T07:32:52.265Z,10.30
2023-04-06T07:35:55.548Z,10.21
2023-04-06T07:38:58.332Z,10.10
2023-04-06T07:42:01.139Z,9.91
2023-04-06T07:45:06.137Z,9.97
2023-04-06T07:48:08.850Z,10.01
2023-04-06T07:51:15.093Z,10.01
2023-04-06T07:54:17.892Z,9.98
2023-04-06T07:57:21.025Z,9.95
2023-04-06T08:00:25.457Z,9.91
2023-04-06T08:03:28.419Z,9.93
2023-04-06T08:06:31.379Z,10.01
2023-04-06T08:09:34.437Z,10.16
2023-04-06T08:12:37.294Z,10.32
2023-04-06T08:15:41.479Z,10.47
2023-04-06T08:18:44.255Z,10.55
2023-04-06T08:21:47.173Z,10.76
2023-04-06T08:24:49.909Z,10.89
2023-04-06T08:27:52.640Z,11.14
2023-04-06T08:30:56.785Z,11.15
2023-04-06T08:33:59.579Z,11.44
2023-04-06T08:37:02.408Z,11.75
2023-04-06T08:40:05.992Z,11.84
2023-04-06T08:43:12.605Z,11.76
2023-04-06T08:46:17.364Z,11.87
2023-04-06T08:49:20.544Z,11.92
2023-04-06T08:52:23.327Z,12.09
2023-04-06T08:55:26.784Z,12.15
2023-04-06T08:58:38.163Z,12.25
2023-04-06T09:01:44.702Z,12.32
2023-04-06T09:04:49.702Z,12.46
2023-04-06T09:07:52.509Z,12.78
2023-04-06T09:10:55.206Z,13.00
2023-04-06T09:13:58.288Z,13.23
2023-04-06T09:17:02.394Z,13.17
2023-04-06T09:20:06.162Z,13.26
2023-04-06T09:23:19.211Z,13.32
2023-04-06T09:26:22.366Z,13.61
2023-04-06T09:29:28.302Z,13.64
2023-04-06T09:32:32.469Z,13.86
2023-04-06T09:35:35.310Z,13.79
2023-04-06T09:38:39.683Z,13.87
2023-04-06T09:41:42.459Z,14.15
2023-04-06T09:44:45.412Z,14.13
2023-04-06T09:47:51.081Z,14.32
2023-04-06T09:51:01.086Z,14.56
2023-04-06T09:54:05.716Z,14.69
2023-04-06T09:57:16.536Z,14.82
2023-04-06T10:00:24.360Z,14.80
2023-04-06T10:03:39.873Z,14.99
2023-04-06T10:06:42.990Z,15.16
2023-04-06T10:09:47.794Z,15.16
2023-04-06T10:12:50.858Z,15.38
2023-04-06T10:15:54.160Z,15.45
2023-04-06T10:19:04.151Z,15.47
2023-04-06T10:22:09.610Z,15.63
2023-04-06T10:25:12.367Z,15.42
2023-04-06T10:28:15.476Z,15.48
2023-04-06T10:31:26.509Z,15.64
2023-04-06T10:34:38.017Z,15.56
2023-04-06T10:37:52.748Z,15.31
2023-04-06T10:41:06.073Z,15.07
2023-04-06T10:44:09.143Z,15.38
2023-04-06T10:47:19.235Z,15.57
2023-04-06T10:50:24.340Z,15.91
2023-04-06T10:53:28.751Z,15.98
2023-04-06T10:56:32.869Z,16.03
2023-04-06T10:59:35.793Z,16.10
2023-04-06T11:02:38.948Z,16.06
2023-04-06T11:05:48.102Z,16.13
2023-04-06T11:08:51.416Z,16.32
2023-04-06T11:11:54.594Z,16.25
2023-04-06T11:15:03.111Z,16.39
2023-04-06T11:18:06.285Z,16.25
2023-04-06T11:21:10.556Z,16.26
2023-04-06T11:24:15.778Z,16.45
2023-04-06T11:27:19.297Z,16.65
2023-04-06T11:30:22.524Z,16.83
2023-04-06T11:33:25.561Z,17.00
2023-04-06T11:36:31.850Z,16.92
2023-04-06T11:39:42.420Z,16.83
2023-04-06T11:42:54.856Z,16.98
2023-04-06T11:46:04.396Z,17.05
2023-04-06T11:49:07.750Z,17.01
2023-04-06T11:52:19.369Z,17.05
2023-04-06T11:55:22.213Z,17.27
2023-04-06T11:58:25.212Z,17.30
2023-04-06T12:01:28.717Z,17.42
2023-04-06T12:04:31.606Z,17.50
2023-04-06T12:07:36.275Z,17.51
2023-04-06T12:10:39.196Z,17.37
2023-04-06T12:13:42.204Z,17.60
2023-04-06T12:16:45.015Z,17.48
2023-04-06T12:19:47.828Z,17.16
2023-04-06T12:22:52.030Z,17.26
2023-04-06T12:25:55.731Z,17.12
2023-04-06T12:29:00.330Z,17.16
2023-04-06T12:32:03.468Z,17.04
2023-04-06T12:35:06.616Z,16.96
2023-04-06T12:38:11.231Z,16.81
2023-04-06T12:41:14.050Z,16.93
2023-04-06T12:44:16.940Z,17.11
2023-04-06T12:47:20.131Z,17.02
2023-04-06T12:50:22.981Z,17.02
2023-04-06T12:53:27.528Z,17.17
2023-04-06T12:56:30.790Z,17.26
2023-04-06T12:59:36.349Z,17.47
2023-04-06T13:02:39.566Z,17.54
2023-04-06T13:05:46.262Z,17.41
2023-04-06T13:08:51.217Z,17.41
2023-04-06T13:11:54.347Z,17.45
2023-04-06T13:14:57.579Z,17.26
2023-04-06T13:18:00.704Z,17.02
2023-04-06T13:21:04.006Z,16.72
2023-04-06T13:24:08.558Z,16.81
2023-04-06T13:27:12.423Z,16.86
2023-04-06T13:30:16.513Z,16.84
2023-04-06T13:33:21.155Z,17.06
2023-04-06T13:36:24.069Z,17.30
2023-04-06T13:39:28.365Z,17.38
2023-04-06T13:42:31.263Z,17.55
2023-04-06T13:45:35.110Z,17.52
2023-04-06T13:48:37.876Z,17.64
2023-04-06T13:51:40.853Z,17.57
2023-04-06T13:54:44.917Z,17.58
2023-04-06T13:57:47.672Z,17.77
2023-04-06T14:00:50.838Z,17.90
2023-04-06T14:03:53.863Z,18.08
2023-04-06T14:06:57.272Z,18.20
2023-04-06T14:10:01.889Z,18.08
2023-04-06T14:13:05.133Z,18.05
2023-04-06T14:16:08.704Z,17.91
2023-04-06T14:19:12.320Z,17.85
2023-04-06T14:22:15.415Z,17.51
2023-04-06T14:25:19.516Z,17.50
2023-04-06T14:28:23.104Z,17.57
2023-04-06T14:31:25.851Z,17.45
2023-04-06T14:34:29.337Z,17.21
2023-04-06T14:37:32.121Z,17.00
2023-04-06T14:40:38.555Z,16.73
2023-04-06T14:43:41.271Z,16.45
2023-04-06T14:46:44.041Z,16.46
2023-04-06T14:49:46.716Z,16.43
2023-04-06T14:52:49.771Z,16.43
2023-04-06T14:55:53.907Z,16.45
2023-04-06T14:58:59.763Z,16.40
2023-04-06T15:02:04.042Z,16.52
2023-04-06T15:05:07.900Z,16.46
2023-04-06T15:08:12.508Z,16.32
2023-04-06T15:11:16.677Z,16.29
2023-04-06T15:14:19.395Z,16.26
2023-04-06T15:17:22.158Z,16.21
2023-04-06T15:20:25.176Z,16.16
2023-04-06T15:23:30.484Z,15.86
2023-04-06T15:26:34.561Z,15.75
2023-04-06T15:29:37.243Z,15.65
2023-04-06T15:32:40.011Z,15.56
2023-04-06T15:35:43.594Z,15.46
2023-04-06T15:38:46.588Z,15.49
2023-04-06T15:41:50.605Z,15.37
2023-04-06T15:44:53.325Z,15.35
2023-04-06T15:47:56.040Z,15.39
2023-04-06T15:50:59.043Z,15.37
2023-04-06T15:54:01.805Z,15.26
2023-04-06T15:57:05.858Z,15.16
2023-04-06T16:00:10.333Z,15.12
2023-04-06T16:03:13.195Z,15.04
2023-04-06T16:06:16.275Z,15.00
2023-04-06T16:09:18.932Z,14.85
2023-04-06T16:12:23.983Z,14.77
2023-04-06T16:15:26.775Z,14.74
2023-04-06T16:18:29.601Z,14.74
2023-04-06T16:21:32.224Z,14.71
2023-04-06T16:24:35.045Z,14.56
2023-04-06T16:27:39.365Z,14.37
2023-04-06T16:30:43.654Z,14.38
2023-04-06T16:33:49.390Z,14.20
2023-04-06T16:36:52.773Z,14.09
2023-04-06T16:39:55.501Z,14.09
2023-04-06T16:42:59.545Z,14.00
2023-04-06T16:46:02.332Z,13.81
2023-04-06T16:49:06.935Z,13.70
2023-04-06T16:52:09.824Z,13.61
2023-04-06T16:55:12.690Z,13.56
2023-04-06T16:58:16.784Z,13.54
2023-04-06T17:01:20.690Z,13.49
2023-04-06T17:04:23.760Z,13.45
2023-04-06T17:07:31.366Z,13.42
2023-04-06T17:10:41.554Z,13.36
2023-04-06T17:13:56.032Z,13.27
2023-04-06T17:16:58.808Z,13.23
2023-04-06T17:20:01.639Z,13.24
2023-04-06T17:23:04.556Z,13.16
2023-04-06T17:26:08.302Z,13.15
2023-04-06T17:29:12.566Z,13.11
2023-04-06T17:32:15.932Z,13.05
2023-04-06T17:35:18.804Z,12.94
2023-04-06T17:38:23.078Z,12.90
2023-04-06T17:41:26.591Z,12.87
2023-04-06T17:44:30.641Z,12.88
2023-04-06T17:47:33.367Z,12.84
2023-04-06T17:50:38.903Z,12.81
2023-04-06T17:53:42.635Z,12.98
2023-04-06T17:56:49.118Z,12.98
2023-04-06T17:59:54.249Z,12.77
2023-04-06T18:02:57.553Z,12.73
2023-04-06T18:06:10.300Z,12.63
2023-04-06T18:09:13.312Z,12.58
2023-04-06T18:12:16.131Z,12.53
2023-04-06T18:15:20.220Z,12.50
2023-04-06T18:18:23.089Z,12.52
2023-04-06T18:21:27.292Z,12.49
2023-04-06T18:24:41.310Z,12.44
2023-04-06T18:27:45.422Z,12.41
2023-04-06T18:30:49.459Z,12.33
2023-04-06T18:33:53.872Z,12.25
2023-04-06T18:36:57.529Z,12.18
2023-04-06T18:40:00.295Z,12.08
2023-04-06T18:43:04.262Z,11.99
2023-04-06T18:46:13.361Z,11.81
2023-04-06T18:49:16.017Z,11.77
2023-04-06T18:52:18.647Z,11.71
2023-04-06T18:55:21.244Z,11.69
2023-04-06T18:58:24.991Z,11.62
2023-04-06T19:01:30.798Z,11.61
2023-04-06T19:04:33.684Z,11.60
2023-04-06T19:07:37.656Z,11.57
2023-04-06T19:10:40.758Z,11.49
2023-04-06T19:13:46.746Z,11.42
2023-04-06T19:16:53.042Z,11.33
2023-04-06T19:19:57.824Z,11.48
2023-04-06T19:23:00.875Z,11.50
2023-04-06T19:26:03.740Z,11.54
2023-04-06T19:29:06.412Z,11.65
2023-04-06T19:32:11.749Z,11.73
2023-04-06T19:35:14.587Z,11.82
2023-04-06T19:38:17.286Z,11.87
2023-04-06T19:41:20.025Z,11.94
2023-04-06T19:44:22.836Z,11.91
2023-04-06T19:47:27.400Z,11.91
2023-04-06T19:50:30.241Z,11.83
2023-04-06T19:53:32.873Z,11.82
2023-04-06T19:56:35.721Z,11.79
2023-04-06T19:59:38.887Z,11.83
2023-04-06T20:02:43.138Z,11.80
2023-04-06T20:05:46.656Z,11.70
2023-04-06T20:08:49.330Z,11.76
2023-04-06T20:11:53.981Z,11.72
2023-04-06T20:14:56.912Z,11.75
2023-04-06T20:18:01.333Z,11.72
2023-04-06T20:21:04.030Z,11.74
2023-04-06T20:24:07.009Z,11.78
2023-04-06T20:27:09.742Z,11.88
2023-04-06T20:30:14.623Z,11.82
2023-04-06T20:33:18.727Z,11.78
2023-04-06T20:36:22.321Z,11.67
2023-04-06T20:39:27.259Z,11.65
2023-04-06T20:42:30.091Z,11.68
2023-04-06T20:45:38.266Z,11.75
2023-04-06T20:48:42.367Z,11.74
2023-04-06T20:51:45.627Z,11.76
2023-04-06T20:54:48.491Z,11.71
2023-04-06T20:57:51.275Z,11.68
2023-04-06T21:00:54.410Z,11.67
2023-04-06T21:03:58.592Z,11.64
2023-04-06T21:07:04.530Z,11.65
2023-04-06T21:10:08.486Z,11.45
2023-04-06T21:13:11.604Z,11.56
2023-04-06T21:16:14.486Z,11.44
2023-04-06T21:19:18.641Z,11.38
2023-04-06T21:22:21.348Z,11.26
2023-04-06T21:25:24.073Z,11.08
2023-04-06T21:28:27.455Z,11.02
2023-04-06T21:31:30.284Z,10.94
2023-04-06T21:34:34.530Z,10.91
2023-04-06T21:37:37.270Z,10.57
2023-04-06T21:40:40.070Z,10.51
2023-04-06T21:43:42.851Z,10.41
2023-04-06T21:46:45.628Z,10.39
2023-04-06T21:49:49.880Z,10.30
2023-04-06T21:52:52.566Z,10.18
2023-04-06T21:55:55.492Z,10.11
2023-04-06T21:58:58.343Z,10.00
2023-04-06T22:02:01.085Z,9.94
2023-04-06T22:05:06.075Z,9.76
2023-04-06T22:08:15.167Z,9.63
2023-04-06T22:11:21.140Z,9.60
2023-04-06T22:14:23.938Z,9.73
2023-04-06T22:17:27.370Z,9.81
2023-04-06T22:20:31.806Z,9.83
2023-04-06T22:23:34.733Z,9.87
2023-04-06T22:26:37.676Z,9.93
2023-04-06T22:29:40.455Z,9.97
2023-04-06T22:32:43.246Z,9.97
2023-04-06T22:35:47.303Z,10.06
2023-04-06T22:38:50.858Z,9.93
2023-04-06T22:41:53.486Z,9.77
2023-04-06T22:44:56.094Z,9.68
2023-04-06T22:47:58.823Z,9.66
2023-04-06T22:51:02.884Z,9.72
2023-04-06T22:54:05.599Z,9.72
2023-04-06T22:57:08.230Z,9.56
2023-04-06T23:00:12.028Z,9.52
2023-04-06T23:03:14.800Z,9.37
2023-04-06T23:06:18.952Z,9.36
2023-04-06T23:09:21.667Z,9.34
2023-04-06T23:12:24.584Z,9.38
2023-04-06T23:15:27.190Z,9.41
2023-04-06T23:18:29.804Z,9.39
2023-04-06T23:21:33.783Z,9.42
2023-04-06T23:24:36.477Z,9.35
2023-04-06T23:27:39.088Z,9.33
2023-04-06T23:30:41.742Z,9.27
2023-04-06T23:33:44.391Z,9.25
2023-04-06T23:36:48.357Z,9.15
2023-04-06T23:39:50.982Z,9.21
2023-04-06T23:42:53.596Z,9.28
2023-04-06T23:45:56.710Z,9.35
2023-04-06T23:48:59.472Z,9.38
2023-04-06T23:52:03.488Z,9.34
2023-04-06T23:55:07.193Z,9.38
2023-04-06T23:58:09.828Z,9.40
